Time;durP1;ratioP1;P1;durP2;ratioP2;P2;SDS_P1;SDS_P2;PMS_P1;PMS_P2;Temp;Humidity;BMP_temperature;BMP_pressure;BME280_temperature;BME280_humidity;BME280_pressure;Samples;Min_cycle;Max_cycle;Signal;HPM_P1;HPM_P2
2021/12/05 00:23:10;;;;;;;17.83;9.80;;;;;;;;;;4942128;28;20464;-81
2021/12/05 00:25:37;;;;;;;14.20;10.40;;;;;;;;;;5003002;28;20463;-79
2021/12/05 00:28:28;;;;;;;14.57;10.70;;;;;;;;;;5014333;28;20489;-77
2021/12/05 00:31:19;;;;;;;16.67;10.50;;;;;;;;;;5019662;28;20539;-79
2021/12/05 00:34:03;;;;;;;14.90;11.10;;;;;;;;;;5021291;28;20477;-80
2021/12/05 00:37:27;;;;;;;16.80;11.37;;;;;;;;;;5018854;28;20461;-79
2021/12/05 00:40:10;;;;;;;16.40;9.97;;;;;;;;;;5021226;28;20465;-79
2021/12/05 00:43:14;;;;;;;16.10;11.33;;;;;;;;;;5016436;28;20493;-80
2021/12/05 00:48:53;;;;;;;14.70;10.97;;;;;;;;;;5002327;28;21021;-80
2021/12/05 00:52:04;;;;;;;13.20;10.30;;;;;;;;;;5019341;28;20484;-79
2021/12/05 00:55:07;;;;;;;16.63;11.60;;;;;;;;;;5020693;28;20516;-80
2021/12/05 00:57:49;;;;;;;15.23;10.10;;;;;;;;;;5020858;28;20591;-79
2021/12/05 01:00:47;;;;;;;14.47;11.37;;;;;;;;;;5016437;28;20569;-79
2021/12/05 01:03:27;;;;;;;17.67;11.40;;;;;;;;;;5022650;28;20449;-81
2021/12/05 01:09:13;;;;;;;17.30;11.27;;;;;;;;;;5022070;28;20484;-80
2021/12/05 01:14:32;;;;;;;14.50;10.73;;;;;;;;;;4982962;28;20475;-81
2021/12/05 01:17:00;;;;;;;16.97;11.60;;;;;;;;;;5024551;28;20453;-80
2021/12/05 01:19:29;;;;;;;19.27;12.30;;;;;;;;;;5015121;28;20485;-80
2021/12/05 01:21:58;;;;;;;18.70;12.63;;;;;;;;;;5019028;28;20495;-80
2021/12/05 01:24:35;;;;;;;18.67;11.60;;;;;;;;;;5019534;28;20999;-80
2021/12/05 01:27:09;;;;;;;15.97;11.60;;;;;;;;;;5019243;28;20473;-80
2021/12/05 01:29:43;;;;;;;16.27;10.47;;;;;;;;;;5024666;28;20484;-80
2021/12/05 01:32:17;;;;;;;17.67;11.20;;;;;;;;;;5024445;28;20766;-81
2021/12/05 01:34:55;;;;;;;16.73;12.03;;;;;;;;;;5022016;28;20473;-80
2021/12/05 01:37:32;;;;;;;15.20;10.70;;;;;;;;;;5024729;28;20523;-80
2021/12/05 01:40:16;;;;;;;21.90;11.87;;;;;;;;;;5022748;28;20556;-80
2021/12/05 01:45:58;;;;;;;19.87;12.47;;;;;;;;;;5026600;28;20465;-80
2021/12/05 01:54:25;;;;;;;17.83;12.67;;;;;;;;;;5019169;28;20476;-80
2021/12/05 02:00:03;;;;;;;17.33;11.50;;;;;;;;;;5020263;28;20488;-80
2021/12/05 02:02:53;;;;;;;20.60;13.13;;;;;;;;;;5019538;28;20501;-80
2021/12/05 02:11:03;;;;;;;21.07;12.77;;;;;;;;;;4988342;28;20838;-80
2021/12/05 02:16:37;;;;;;;18.97;13.37;;;;;;;;;;5022921;28;20437;-80
2021/12/05 02:30:12;;;;;;;21.07;12.43;;;;;;;;;;5023430;28;20464;-79
2021/12/05 02:35:41;;;;;;;19.17;12.87;;;;;;;;;;4992177;28;20481;-79
2021/12/05 02:41:07;;;;;;;23.73;13.40;;;;;;;;;;5024106;28;20530;-79
2021/12/05 02:43:36;;;;;;;21.13;13.57;;;;;;;;;;5018923;28;20472;-79
2021/12/05 02:46:04;;;;;;;22.37;14.23;;;;;;;;;;5021231;28;20483;-79
2021/12/05 02:48:34;;;;;;;23.77;14.67;;;;;;;;;;5019730;28;20531;-79
2021/12/05 02:51:01;;;;;;;24.70;13.40;;;;;;;;;;5023486;28;20442;-79
2021/12/05 02:53:36;;;;;;;18.73;12.60;;;;;;;;;;5022101;28;20540;-79
2021/12/05 02:56:02;;;;;;;23.03;13.00;;;;;;;;;;5018770;28;20464;-79
2021/12/05 02:58:35;;;;;;;20.10;12.03;;;;;;;;;;5016560;28;20480;-79
2021/12/05 03:01:10;;;;;;;20.60;12.30;;;;;;;;;;5024944;28;20477;-80
2021/12/05 03:03:37;;;;;;;21.40;13.00;;;;;;;;;;5022602;28;20838;-80
2021/12/05 03:06:13;;;;;;;18.93;12.93;;;;;;;;;;5023476;28;20464;-81
2021/12/05 03:08:40;;;;;;;20.57;12.93;;;;;;;;;;5021661;28;20496;-80
2021/12/05 03:11:07;;;;;;;18.00;12.03;;;;;;;;;;5021245;28;20511;-80
2021/12/05 03:13:34;;;;;;;20.70;11.93;;;;;;;;;;5021856;28;20855;-80
2021/12/05 03:16:00;;;;;;;16.80;12.03;;;;;;;;;;5022138;28;20941;-80
2021/12/05 03:18:26;;;;;;;21.60;12.90;;;;;;;;;;5020745;28;20513;-80
2021/12/05 03:20:53;;;;;;;20.00;12.63;;;;;;;;;;5024136;28;20472;-80
2021/12/05 03:23:19;;;;;;;21.53;13.13;;;;;;;;;;5022350;28;20478;-80
2021/12/05 03:25:46;;;;;;;18.90;12.43;;;;;;;;;;5023762;28;20441;-80
2021/12/05 03:28:13;;;;;;;17.07;12.27;;;;;;;;;;5017969;28;20532;-80
2021/12/05 03:30:39;;;;;;;22.50;14.00;;;;;;;;;;5023708;28;20452;-80
2021/12/05 03:33:05;;;;;;;19.90;13.30;;;;;;;;;;5020214;28;20485;-80
2021/12/05 03:35:32;;;;;;;18.63;11.50;;;;;;;;;;5022244;28;20433;-80
2021/12/05 03:37:59;;;;;;;19.40;12.23;;;;;;;;;;5019788;28;20452;-79
2021/12/05 03:40:28;;;;;;;18.60;11.97;;;;;;;;;;5019179;28;20527;-80
2021/12/05 03:42:56;;;;;;;18.53;11.97;;;;;;;;;;5022604;28;20555;-80
2021/12/05 03:45:24;;;;;;;20.13;12.30;;;;;;;;;;5016296;28;20529;-80
2021/12/05 03:47:51;;;;;;;18.17;11.97;;;;;;;;;;5024228;28;20492;-79
2021/12/05 03:50:18;;;;;;;17.23;11.33;;;;;;;;;;5015647;28;20480;-80
2021/12/05 03:52:44;;;;;;;16.43;11.10;;;;;;;;;;5023200;28;20484;-80
2021/12/05 03:55:11;;;;;;;17.33;12.90;;;;;;;;;;5019502;28;20892;-80
2021/12/05 03:57:38;;;;;;;18.30;12.17;;;;;;;;;;5024070;28;20530;-79
2021/12/05 04:00:08;;;;;;;19.50;11.40;;;;;;;;;;5016177;28;20478;-79
2021/12/05 04:02:34;;;;;;;18.27;11.50;;;;;;;;;;5023001;28;20486;-80
2021/12/05 04:05:00;;;;;;;20.67;13.67;;;;;;;;;;5019162;28;20585;-78
2021/12/05 04:07:27;;;;;;;19.47;12.77;;;;;;;;;;5023709;28;20452;-79
2021/12/05 04:09:53;;;;;;;21.00;11.73;;;;;;;;;;5021696;28;20477;-79
2021/12/05 04:12:19;;;;;;;18.30;12.37;;;;;;;;;;5025016;28;21051;-79
2021/12/05 04:14:48;;;;;;;18.20;12.43;;;;;;;;;;5020612;28;20891;-79
2021/12/05 04:17:17;;;;;;;19.37;11.67;;;;;;;;;;5019247;28;20466;-79
2021/12/05 04:19:43;;;;;;;22.53;13.53;;;;;;;;;;5020849;28;20476;-78
2021/12/05 04:22:10;;;;;;;21.50;13.80;;;;;;;;;;5022329;28;20493;-79
2021/12/05 04:24:36;;;;;;;21.53;13.17;;;;;;;;;;5020223;28;20488;-79
2021/12/05 04:27:02;;;;;;;24.13;13.33;;;;;;;;;;5022846;28;20500;-79
2021/12/05 04:29:29;;;;;;;22.87;14.17;;;;;;;;;;5021718;28;20497;-79
2021/12/05 04:31:55;;;;;;;20.10;12.60;;;;;;;;;;5024936;28;20476;-79
2021/12/05 04:34:23;;;;;;;24.90;14.53;;;;;;;;;;5020439;28;20481;-79
2021/12/05 04:36:55;;;;;;;24.83;14.17;;;;;;;;;;5023339;28;20466;-79
2021/12/05 04:39:21;;;;;;;23.23;14.80;;;;;;;;;;5024455;28;20476;-79
2021/12/05 04:41:48;;;;;;;26.20;14.57;;;;;;;;;;5023565;28;20536;-79
2021/12/05 04:44:14;;;;;;;24.47;15.67;;;;;;;;;;5022487;28;20476;-79
2021/12/05 04:46:40;;;;;;;27.80;16.57;;;;;;;;;;5020452;28;20452;-79
2021/12/05 04:49:07;;;;;;;26.90;15.83;;;;;;;;;;5018975;28;20474;-79
2021/12/05 04:51:36;;;;;;;22.97;14.53;;;;;;;;;;5023109;28;20480;-79
2021/12/05 04:54:02;;;;;;;31.77;16.73;;;;;;;;;;5019650;28;20484;-79
2021/12/05 04:56:29;;;;;;;36.23;16.77;;;;;;;;;;5020441;28;20536;-79
2021/12/05 04:58:57;;;;;;;26.07;15.37;;;;;;;;;;5014622;28;20527;-79
2021/12/05 05:01:23;;;;;;;35.17;18.27;;;;;;;;;;5019849;28;20490;-79
2021/12/05 05:03:50;;;;;;;28.80;16.37;;;;;;;;;;5021337;28;20998;-79
2021/12/05 05:06:18;;;;;;;35.90;19.63;;;;;;;;;;5022330;28;20469;-79
2021/12/05 05:08:49;;;;;;;26.63;15.93;;;;;;;;;;5023995;28;21116;-78
2021/12/05 05:11:17;;;;;;;29.63;17.33;;;;;;;;;;5023377;28;20572;-78
2021/12/05 05:13:43;;;;;;;33.77;18.20;;;;;;;;;;5020960;28;20481;-77
2021/12/05 05:16:13;;;;;;;33.53;18.77;;;;;;;;;;5021161;28;20472;-79
2021/12/05 05:18:45;;;;;;;32.00;17.43;;;;;;;;;;5023077;28;20565;-79
2021/12/05 05:21:17;;;;;;;34.80;17.97;;;;;;;;;;5024184;28;20489;-79
2021/12/05 05:24:01;;;;;;;32.77;17.50;;;;;;;;;;5020821;28;20485;-79
2021/12/05 05:27:06;;;;;;;34.07;19.07;;;;;;;;;;5026309;28;20463;-79
2021/12/05 05:29:50;;;;;;;32.13;18.10;;;;;;;;;;5020431;28;20565;-77
2021/12/05 05:40:46;;;;;;;31.33;18.53;;;;;;;;;;5016992;28;20484;-79
2021/12/05 05:43:23;;;;;;;31.03;17.30;;;;;;;;;;5020483;28;20588;-79
2021/12/05 05:48:44;;;;;;;32.37;17.27;;;;;;;;;;5020745;28;20464;-79
2021/12/05 05:51:10;;;;;;;26.73;16.27;;;;;;;;;;5023891;28;20467;-79
2021/12/05 05:53:37;;;;;;;33.40;17.60;;;;;;;;;;5020463;28;20504;-79
2021/12/05 05:56:04;;;;;;;32.90;18.27;;;;;;;;;;5023877;28;20450;-79
2021/12/05 05:58:41;;;;;;;33.57;18.73;;;;;;;;;;5019549;28;20493;-79
2021/12/05 06:01:15;;;;;;;34.73;20.33;;;;;;;;;;5021776;28;20606;-79
2021/12/05 06:03:42;;;;;;;36.27;20.30;;;;;;;;;;5019712;28;20550;-79
2021/12/05 06:06:09;;;;;;;31.50;18.40;;;;;;;;;;5022530;28;20901;-80
2021/12/05 06:08:37;;;;;;;32.37;17.07;;;;;;;;;;5020270;28;20482;-79
2021/12/05 06:11:05;;;;;;;27.60;16.40;;;;;;;;;;5014975;28;20450;-80
2021/12/05 06:13:33;;;;;;;29.17;19.00;;;;;;;;;;5015966;28;20541;-80
2021/12/05 06:15:59;;;;;;;31.80;18.80;;;;;;;;;;5024675;28;20461;-79
2021/12/05 06:18:26;;;;;;;35.13;18.27;;;;;;;;;;5023203;28;20517;-80
2021/12/05 06:20:53;;;;;;;35.97;19.20;;;;;;;;;;5021150;28;20836;-80
2021/12/05 06:23:20;;;;;;;35.13;19.60;;;;;;;;;;5023236;28;20460;-80
2021/12/05 06:25:48;;;;;;;33.40;18.97;;;;;;;;;;5024654;28;20453;-80
2021/12/05 06:28:16;;;;;;;35.73;18.80;;;;;;;;;;5018001;28;20461;-80
2021/12/05 06:30:49;;;;;;;36.03;20.20;;;;;;;;;;5024403;28;20839;-79
2021/12/05 06:41:34;;;;;;;30.67;17.57;;;;;;;;;;5019601;28;20588;-80
2021/12/05 06:46:45;;;;;;;33.47;17.70;;;;;;;;;;5024055;28;21179;-79
2021/12/05 06:49:12;;;;;;;33.37;18.27;;;;;;;;;;5018685;28;20473;-80
2021/12/05 06:51:38;;;;;;;40.73;19.27;;;;;;;;;;5020180;28;20482;-80
2021/12/05 06:54:04;;;;;;;29.97;18.43;;;;;;;;;;5020713;28;20551;-80
2021/12/05 06:56:30;;;;;;;31.67;17.03;;;;;;;;;;5024403;28;20465;-80
2021/12/05 06:58:56;;;;;;;32.30;17.23;;;;;;;;;;5017688;28;20473;-80
2021/12/05 07:01:23;;;;;;;32.40;18.50;;;;;;;;;;5019902;28;21059;-80
2021/12/05 07:03:51;;;;;;;31.60;18.70;;;;;;;;;;5018726;28;21071;-80
2021/12/05 07:06:23;;;;;;;32.37;19.13;;;;;;;;;;5017505;28;20469;-80
2021/12/05 07:08:53;;;;;;;33.27;19.63;;;;;;;;;;5016213;28;20581;-80
2021/12/05 07:11:23;;;;;;;35.03;19.50;;;;;;;;;;5010171;28;20489;-80
2021/12/05 07:16:51;;;;;;;36.93;17.60;;;;;;;;;;5012617;28;20485;-80
2021/12/05 07:19:36;;;;;;;29.77;17.07;;;;;;;;;;5000996;23;20527;-81
2021/12/05 07:22:14;;;;;;;26.70;13.50;;;;;;;;;;4965089;28;20483;-83
2021/12/05 07:24:45;;;;;;;23.83;15.10;;;;;;;;;;4965976;28;20510;-82
2021/12/05 07:40:49;;;;;;;40.63;26.60;;;;;;;;;;4947749;28;20580;-84
2021/12/05 07:43:17;;;;;;;49.47;31.97;;;;;;;;;;4946611;28;20494;-81
2021/12/05 07:45:49;;;;;;;64.23;38.27;;;;;;;;;;4947150;28;20495;-84
2021/12/05 07:48:20;;;;;;;58.20;35.27;;;;;;;;;;4944995;28;20530;-86
2021/12/05 07:50:53;;;;;;;68.67;41.80;;;;;;;;;;4947640;28;20477;-81
2021/12/05 07:53:25;;;;;;;55.97;34.00;;;;;;;;;;4943630;28;20528;-81
2021/12/05 07:55:54;;;;;;;42.83;27.77;;;;;;;;;;4945061;28;20504;-82
2021/12/05 07:58:46;;;;;;;37.07;23.60;;;;;;;;;;4946708;28;20509;-83
2021/12/05 08:14:20;;;;;;;23.40;16.17;;;;;;;;;;4946512;28;20475;-82
2021/12/05 08:15:11;;;;;;;23.10;13.83;;;;;;;;;;4964947;28;20453;-84
2021/12/05 08:17:38;;;;;;;23.20;14.47;;;;;;;;;;4965376;28;20482;-82
2021/12/05 08:20:05;;;;;;;23.10;15.30;;;;;;;;;;4965262;28;20464;-83
2021/12/05 08:22:32;;;;;;;28.47;14.30;;;;;;;;;;4965925;28;21062;-84
2021/12/05 08:25:08;;;;;;;28.43;14.93;;;;;;;;;;4966420;28;20483;-82
2021/12/05 08:27:34;;;;;;;29.20;16.37;;;;;;;;;;4965544;28;20574;-85
2021/12/05 08:30:08;;;;;;;23.27;14.53;;;;;;;;;;4965664;28;20483;-81
2021/12/05 08:32:47;;;;;;;25.33;13.53;;;;;;;;;;4963064;28;20571;-83
2021/12/05 08:35:23;;;;;;;21.17;13.80;;;;;;;;;;4964185;28;20491;-86
2021/12/05 08:38:40;;;;;;;26.83;15.63;;;;;;;;;;4963931;28;20486;-84
2021/12/05 08:41:29;;;;;;;26.70;13.70;;;;;;;;;;4966521;28;20467;-84
2021/12/05 08:44:27;;;;;;;25.90;14.50;;;;;;;;;;4966020;28;20578;-85
2021/12/05 09:30:55;;;;;;;27.40;17.60;;;;;;;;;;4966380;28;20967;-85
2021/12/05 09:39:19;;;;;;;30.63;18.00;;;;;;;;;;4965215;28;20490;-82
2021/12/05 10:09:42;;;;;;;31.63;18.23;;;;;;;;;;4971015;28;20490;-85
2021/12/05 10:12:32;;;;;;;32.10;18.57;;;;;;;;;;4969895;28;20986;-86
2021/12/05 10:15:15;;;;;;;30.60;18.20;;;;;;;;;;4967237;28;20491;-86
2021/12/05 10:18:08;;;;;;;45.07;21.67;;;;;;;;;;4969632;28;20471;-85
2021/12/05 10:26:33;;;;;;;34.23;20.87;;;;;;;;;;4970414;28;20533;-85
2021/12/05 10:34:46;;;;;;;33.57;20.20;;;;;;;;;;4969941;28;20575;-87
2021/12/05 10:37:17;;;;;;;31.70;20.47;;;;;;;;;;4967525;28;20530;-85
2021/12/05 10:39:43;;;;;;;36.73;22.93;;;;;;;;;;4970374;28;20476;-83
2021/12/05 10:42:38;;;;;;;38.43;23.20;;;;;;;;;;4967287;28;20480;-83
2021/12/05 10:45:05;;;;;;;37.47;22.80;;;;;;;;;;4968633;28;20484;-85
2021/12/05 10:47:38;;;;;;;43.07;27.13;;;;;;;;;;4967241;28;20479;-84
2021/12/05 10:50:19;;;;;;;37.50;22.60;;;;;;;;;;4964892;28;20510;-84
2021/12/05 10:52:47;;;;;;;41.17;26.13;;;;;;;;;;4965943;28;20562;-83
2021/12/05 10:55:13;;;;;;;44.23;25.77;;;;;;;;;;4965868;28;20443;-81
2021/12/05 10:57:43;;;;;;;46.10;25.20;;;;;;;;;;4965539;28;20492;-83
2021/12/05 11:00:11;;;;;;;47.47;27.10;;;;;;;;;;4964355;28;20463;-84
2021/12/05 11:02:37;;;;;;;45.63;24.23;;;;;;;;;;4965216;28;20471;-84
2021/12/05 11:05:04;;;;;;;40.60;23.90;;;;;;;;;;4965671;28;20491;-83
2021/12/05 11:07:38;;;;;;;36.30;22.87;;;;;;;;;;4964169;28;20472;-83
2021/12/05 11:10:10;;;;;;;35.60;23.13;;;;;;;;;;4964181;28;20467;-84
2021/12/05 11:12:38;;;;;;;36.10;23.60;;;;;;;;;;4965917;28;21062;-83
2021/12/05 11:15:08;;;;;;;39.87;23.53;;;;;;;;;;4966420;28;20832;-85
2021/12/05 11:17:36;;;;;;;39.00;25.90;;;;;;;;;;4965905;28;20582;-83
2021/12/05 11:20:06;;;;;;;40.27;25.37;;;;;;;;;;4964766;28;20867;-84
2021/12/05 11:22:33;;;;;;;42.60;25.40;;;;;;;;;;4964372;28;20476;-84
2021/12/05 11:25:01;;;;;;;45.30;27.00;;;;;;;;;;4964706;28;20492;-84
2021/12/05 11:27:30;;;;;;;53.07;30.70;;;;;;;;;;4965980;28;20891;-84
2021/12/05 11:30:10;;;;;;;42.20;29.20;;;;;;;;;;4968134;28;20529;-84
2021/12/05 11:32:38;;;;;;;44.73;23.73;;;;;;;;;;4966037;28;20487;-83
2021/12/05 11:35:12;;;;;;;37.50;22.33;;;;;;;;;;4965124;28;20456;-86
2021/12/05 11:37:48;;;;;;;36.90;22.63;;;;;;;;;;4966928;28;20476;-84
2021/12/05 11:40:14;;;;;;;35.20;22.93;;;;;;;;;;4967271;28;20459;-84
2021/12/05 11:42:51;;;;;;;36.37;21.40;;;;;;;;;;4964780;28;20535;-85
2021/12/05 11:45:18;;;;;;;32.53;23.30;;;;;;;;;;4967619;28;20912;-86
2021/12/05 11:47:44;;;;;;;35.70;23.23;;;;;;;;;;4968279;28;20554;-88
2021/12/05 11:50:10;;;;;;;35.50;21.83;;;;;;;;;;4964115;28;20459;-85
2021/12/05 11:52:38;;;;;;;33.27;19.67;;;;;;;;;;4965904;28;20480;-79
2021/12/05 11:55:04;;;;;;;34.93;21.80;;;;;;;;;;4963064;28;20467;-84
2021/12/05 11:57:30;;;;;;;33.33;21.10;;;;;;;;;;4964377;28;20550;-84
2021/12/05 12:00:00;;;;;;;39.67;22.10;;;;;;;;;;4963027;28;20547;-84
2021/12/05 12:02:28;;;;;;;33.77;20.17;;;;;;;;;;4962648;28;20535;-86
2021/12/05 12:04:56;;;;;;;35.03;20.50;;;;;;;;;;4962907;28;20545;-85
2021/12/05 12:07:25;;;;;;;37.30;21.60;;;;;;;;;;4963421;28;20488;-84
2021/12/05 12:09:53;;;;;;;34.30;23.20;;;;;;;;;;4964189;28;20525;-84
2021/12/05 12:12:20;;;;;;;34.80;21.70;;;;;;;;;;4961494;28;21030;-83
2021/12/05 12:14:46;;;;;;;37.87;22.00;;;;;;;;;;4963255;28;20539;-86
2021/12/05 12:17:16;;;;;;;36.13;23.50;;;;;;;;;;4962452;28;20980;-85
2021/12/05 12:19:43;;;;;;;32.27;20.67;;;;;;;;;;4962504;28;20862;-83
2021/12/05 12:22:10;;;;;;;31.67;19.90;;;;;;;;;;4962931;28;20502;-85
2021/12/05 12:24:37;;;;;;;37.67;22.03;;;;;;;;;;4963096;28;20494;-82
2021/12/05 12:27:04;;;;;;;35.60;23.00;;;;;;;;;;4962315;28;20488;-84
2021/12/05 12:29:30;;;;;;;38.13;24.00;;;;;;;;;;4963115;28;20484;-85
2021/12/05 12:32:00;;;;;;;35.63;24.17;;;;;;;;;;4962797;28;20523;-85
2021/12/05 12:34:27;;;;;;;43.07;25.80;;;;;;;;;;4963488;28;20507;-84
2021/12/05 12:36:55;;;;;;;44.23;25.40;;;;;;;;;;4962631;28;21184;-84
2021/12/05 12:39:30;;;;;;;42.97;26.40;;;;;;;;;;4965643;28;20514;-82
2021/12/05 12:42:18;;;;;;;42.33;25.93;;;;;;;;;;4963389;28;20505;-86
2021/12/05 12:45:00;;;;;;;44.47;22.37;;;;;;;;;;4959870;28;20488;-86
2021/12/05 12:47:31;;;;;;;37.93;24.00;;;;;;;;;;4961206;28;20566;-86
2021/12/05 12:50:18;;;;;;;39.33;24.53;;;;;;;;;;4964347;28;20484;-85
2021/12/05 12:52:55;;;;;;;38.57;24.10;;;;;;;;;;4962465;28;20492;-84
2021/12/05 12:55:21;;;;;;;37.30;23.80;;;;;;;;;;4965465;28;20545;-84
2021/12/05 12:57:47;;;;;;;36.80;22.20;;;;;;;;;;4963156;28;20547;-83
2021/12/05 13:00:16;;;;;;;45.57;28.47;;;;;;;;;;4959990;28;20533;-85
2021/12/05 13:02:57;;;;;;;49.53;28.63;;;;;;;;;;4960322;28;21046;-79
2021/12/05 13:05:52;;;;;;;48.73;28.50;;;;;;;;;;4963524;28;20593;-85
2021/12/05 13:11:09;;;;;;;38.57;22.43;;;;;;;;;;4889335;28;20467;-85
2021/12/05 13:13:38;;;;;;;40.33;22.40;;;;;;;;;;4964136;28;20464;-82
2021/12/05 13:16:10;;;;;;;36.53;21.67;;;;;;;;;;4962143;28;20462;-83
2021/12/05 13:18:38;;;;;;;36.20;23.33;;;;;;;;;;4962983;28;20898;-83
2021/12/05 13:21:07;;;;;;;41.33;24.13;;;;;;;;;;4961632;28;20460;-83
2021/12/05 13:23:36;;;;;;;39.33;23.70;;;;;;;;;;4963045;28;21471;-85
2021/12/05 13:26:11;;;;;;;35.60;22.87;;;;;;;;;;4960240;28;20497;-84
2021/12/05 13:28:38;;;;;;;32.80;21.63;;;;;;;;;;4946247;28;20511;-83
2021/12/05 13:31:19;;;;;;;41.70;24.60;;;;;;;;;;5062340;23;20918;-82
2021/12/05 13:33:46;;;;;;;40.27;22.63;;;;;;;;;;4984552;28;20465;-82
2021/12/05 13:36:27;;;;;;;36.30;22.70;;;;;;;;;;5002315;28;20462;-82
2021/12/05 13:38:54;;;;;;;35.10;20.77;;;;;;;;;;5011008;28;20555;-82
2021/12/05 13:41:21;;;;;;;29.40;19.73;;;;;;;;;;5011514;28;20465;-82
2021/12/05 13:43:54;;;;;;;34.03;20.93;;;;;;;;;;5027503;28;20502;-82
2021/12/05 13:46:34;;;;;;;33.27;20.87;;;;;;;;;;5021102;28;20477;-81
2021/12/05 13:49:00;;;;;;;32.03;20.00;;;;;;;;;;5017031;28;20466;-82
2021/12/05 13:51:27;;;;;;;34.80;21.27;;;;;;;;;;5020721;28;20476;-82
2021/12/05 13:53:59;;;;;;;34.77;20.40;;;;;;;;;;5028619;28;20516;-82
2021/12/05 13:56:27;;;;;;;37.40;20.90;;;;;;;;;;5027329;28;20472;-81
2021/12/05 13:58:59;;;;;;;29.57;19.50;;;;;;;;;;5025581;28;20510;-82
2021/12/05 14:01:26;;;;;;;34.50;22.07;;;;;;;;;;5025558;28;20510;-82
2021/12/05 14:04:10;;;;;;;36.03;21.90;;;;;;;;;;5019300;28;20508;-81
2021/12/05 14:06:42;;;;;;;33.57;20.60;;;;;;;;;;5012011;28;20536;-82
2021/12/05 14:09:12;;;;;;;34.13;21.33;;;;;;;;;;5025575;28;20457;-82
2021/12/05 14:11:42;;;;;;;38.50;23.00;;;;;;;;;;5016734;28;20485;-82
2021/12/05 14:14:09;;;;;;;35.60;21.30;;;;;;;;;;5029431;28;20449;-81
2021/12/05 14:16:36;;;;;;;34.90;22.83;;;;;;;;;;5024256;28;20486;-81
2021/12/05 14:19:04;;;;;;;38.27;23.40;;;;;;;;;;5024572;28;20445;-81
2021/12/05 14:21:30;;;;;;;36.27;23.57;;;;;;;;;;5024611;28;20900;-82
2021/12/05 14:23:58;;;;;;;36.80;21.30;;;;;;;;;;5029438;28;20511;-82
2021/12/05 14:26:27;;;;;;;37.70;23.40;;;;;;;;;;5026930;28;20477;-82
2021/12/05 14:28:58;;;;;;;30.97;21.30;;;;;;;;;;5022405;28;20485;-81
2021/12/05 14:31:25;;;;;;;35.57;21.30;;;;;;;;;;5022233;28;20501;-81
2021/12/05 14:33:52;;;;;;;37.50;23.00;;;;;;;;;;5023073;28;20462;-82
2021/12/05 14:36:20;;;;;;;35.90;23.17;;;;;;;;;;5021800;28;20540;-82
2021/12/05 14:38:46;;;;;;;34.70;24.23;;;;;;;;;;5028795;28;20469;-81
2021/12/05 14:41:12;;;;;;;35.50;21.60;;;;;;;;;;5028216;28;20477;-81
2021/12/05 14:43:40;;;;;;;35.33;20.63;;;;;;;;;;5028639;28;20461;-81
2021/12/05 14:46:06;;;;;;;31.53;19.10;;;;;;;;;;5018489;28;20489;-82
2021/12/05 14:48:32;;;;;;;33.47;19.97;;;;;;;;;;5021632;28;20470;-81
2021/12/05 14:51:00;;;;;;;31.83;20.20;;;;;;;;;;5022478;28;20477;-81
2021/12/05 14:53:28;;;;;;;31.33;19.43;;;;;;;;;;5025727;28;20454;-82
2021/12/05 14:55:58;;;;;;;30.67;19.37;;;;;;;;;;5024688;28;20461;-82
2021/12/05 14:58:25;;;;;;;31.67;19.50;;;;;;;;;;5026971;28;20495;-82
2021/12/05 15:00:54;;;;;;;29.93;19.97;;;;;;;;;;5029195;28;20485;-82
2021/12/05 15:03:21;;;;;;;35.73;20.20;;;;;;;;;;5023765;28;20545;-82
2021/12/05 15:05:49;;;;;;;34.77;21.00;;;;;;;;;;5030442;28;20485;-81
2021/12/05 15:08:17;;;;;;;35.40;20.83;;;;;;;;;;5023032;28;20601;-82
2021/12/05 15:10:45;;;;;;;32.50;18.17;;;;;;;;;;5026487;28;20477;-80
2021/12/05 15:13:12;;;;;;;30.87;20.83;;;;;;;;;;5022399;28;20539;-80
2021/12/05 15:15:39;;;;;;;31.83;19.73;;;;;;;;;;5028730;28;20532;-80
2021/12/05 15:18:13;;;;;;;30.77;19.17;;;;;;;;;;5026960;28;20894;-79
2021/12/05 15:20:40;;;;;;;29.50;17.80;;;;;;;;;;5025235;28;20787;-81
2021/12/05 15:23:07;;;;;;;32.50;19.70;;;;;;;;;;5024793;28;20477;-80
2021/12/05 15:25:34;;;;;;;29.13;18.00;;;;;;;;;;5021893;28;21014;-80
2021/12/05 15:28:01;;;;;;;27.03;17.00;;;;;;;;;;5025119;28;21007;-79
2021/12/05 15:30:29;;;;;;;28.03;18.47;;;;;;;;;;5025032;28;20449;-79
2021/12/05 15:32:57;;;;;;;29.63;17.77;;;;;;;;;;5024284;28;20473;-80
2021/12/05 15:35:25;;;;;;;29.03;18.20;;;;;;;;;;5024376;28;21018;-78
2021/12/05 15:37:53;;;;;;;33.60;20.27;;;;;;;;;;5026675;28;20469;-80
2021/12/05 15:40:19;;;;;;;26.90;16.07;;;;;;;;;;5025651;28;20457;-80
2021/12/05 15:42:46;;;;;;;23.93;16.53;;;;;;;;;;5026638;28;20469;-80
2021/12/05 15:45:14;;;;;;;23.47;16.53;;;;;;;;;;5025268;28;20484;-80
2021/12/05 15:47:41;;;;;;;27.10;16.63;;;;;;;;;;5020766;28;20477;-80
2021/12/05 15:50:08;;;;;;;27.40;15.53;;;;;;;;;;5024692;28;20462;-80
2021/12/05 15:52:38;;;;;;;25.87;15.47;;;;;;;;;;5026697;28;20547;-80
2021/12/05 15:55:07;;;;;;;25.00;16.07;;;;;;;;;;5025322;28;20440;-80
2021/12/05 15:57:35;;;;;;;28.53;17.87;;;;;;;;;;5026871;28;20838;-80
2021/12/05 16:00:07;;;;;;;25.03;15.87;;;;;;;;;;5026098;28;20470;-80
2021/12/05 16:02:33;;;;;;;30.00;18.03;;;;;;;;;;5021491;28;20481;-80
2021/12/05 16:05:00;;;;;;;31.83;19.30;;;;;;;;;;5025068;28;20468;-80
2021/12/05 16:07:27;;;;;;;26.97;17.63;;;;;;;;;;5025376;28;20466;-80
2021/12/05 16:10:07;;;;;;;26.40;16.47;;;;;;;;;;5024192;28;20454;-80
2021/12/05 16:12:37;;;;;;;28.07;16.47;;;;;;;;;;5024468;28;20475;-80
2021/12/05 16:15:04;;;;;;;21.73;15.07;;;;;;;;;;5025231;28;20870;-80
2021/12/05 16:17:31;;;;;;;24.83;14.37;;;;;;;;;;5022600;28;20511;-80
2021/12/05 16:20:01;;;;;;;24.70;14.73;;;;;;;;;;5023026;28;20456;-80
2021/12/05 16:22:28;;;;;;;26.27;14.43;;;;;;;;;;5025581;28;20477;-81
2021/12/05 16:24:55;;;;;;;19.77;13.83;;;;;;;;;;5026481;28;21013;-80
2021/12/05 16:27:22;;;;;;;20.87;15.30;;;;;;;;;;5028011;28;20501;-80
2021/12/05 16:29:48;;;;;;;20.40;13.97;;;;;;;;;;5024077;28;20464;-80
2021/12/05 16:32:14;;;;;;;20.73;14.70;;;;;;;;;;5025350;28;20526;-80
2021/12/05 16:34:46;;;;;;;17.50;13.20;;;;;;;;;;5025753;28;20454;-79
2021/12/05 16:37:12;;;;;;;26.30;15.63;;;;;;;;;;5029290;28;20491;-80
2021/12/05 16:39:40;;;;;;;17.70;13.03;;;;;;;;;;5027800;28;20442;-80
2021/12/05 16:42:10;;;;;;;20.93;13.67;;;;;;;;;;5026598;28;20527;-80
2021/12/05 16:44:39;;;;;;;22.27;14.97;;;;;;;;;;5028605;28;20861;-80
2021/12/05 16:47:10;;;;;;;25.80;16.20;;;;;;;;;;5023964;28;20490;-80
2021/12/05 16:49:38;;;;;;;26.03;16.40;;;;;;;;;;5025089;28;20469;-80
2021/12/05 16:52:06;;;;;;;24.93;15.70;;;;;;;;;;5028620;28;20469;-79
2021/12/05 16:54:34;;;;;;;28.70;18.43;;;;;;;;;;5026991;28;20469;-80
2021/12/05 16:57:07;;;;;;;23.77;15.70;;;;;;;;;;5027505;28;20501;-80
2021/12/05 16:59:40;;;;;;;25.53;17.03;;;;;;;;;;5030237;28;20458;-81
2021/12/05 17:02:14;;;;;;;31.17;18.77;;;;;;;;;;5032328;28;21035;-80
2021/12/05 17:04:48;;;;;;;31.90;18.17;;;;;;;;;;5028283;28;20456;-80
2021/12/05 17:07:18;;;;;;;29.70;18.50;;;;;;;;;;5029859;28;20983;-80
2021/12/05 17:09:44;;;;;;;27.67;18.20;;;;;;;;;;5029621;28;20476;-81
2021/12/05 17:12:25;;;;;;;34.80;18.90;;;;;;;;;;5032106;28;20530;-80
2021/12/05 17:15:09;;;;;;;31.47;19.00;;;;;;;;;;5027256;28;20455;-80
2021/12/05 17:17:35;;;;;;;28.70;17.93;;;;;;;;;;5028312;28;20457;-79
2021/12/05 17:20:17;;;;;;;32.57;18.90;;;;;;;;;;5026798;28;20499;-80
2021/12/05 17:22:50;;;;;;;32.77;18.93;;;;;;;;;;5026721;28;20464;-79
2021/12/05 17:25:25;;;;;;;30.43;18.37;;;;;;;;;;5023607;28;20500;-80
2021/12/05 17:27:52;;;;;;;33.43;17.97;;;;;;;;;;5025555;28;20875;-80
2021/12/05 17:30:19;;;;;;;28.90;18.73;;;;;;;;;;5030476;28;20940;-82
2021/12/05 17:32:45;;;;;;;30.03;18.90;;;;;;;;;;5028701;28;20469;-80
2021/12/05 17:35:12;;;;;;;34.20;19.30;;;;;;;;;;5027218;28;20507;-80
2021/12/05 17:37:43;;;;;;;32.03;19.20;;;;;;;;;;5028224;28;20473;-80
2021/12/05 17:40:10;;;;;;;32.50;19.43;;;;;;;;;;5027067;28;20464;-80
2021/12/05 17:42:38;;;;;;;32.53;17.83;;;;;;;;;;5029448;28;20472;-80
2021/12/05 17:45:06;;;;;;;29.90;19.00;;;;;;;;;;5026156;28;20477;-80
2021/12/05 17:47:34;;;;;;;34.40;19.20;;;;;;;;;;5028750;28;20473;-79
2021/12/05 17:50:01;;;;;;;26.87;17.20;;;;;;;;;;5029182;28;20465;-80
2021/12/05 17:52:29;;;;;;;32.93;19.30;;;;;;;;;;5030450;28;20560;-79
2021/12/05 17:55:01;;;;;;;28.47;19.40;;;;;;;;;;5026122;28;20540;-80
2021/12/05 17:57:34;;;;;;;31.73;19.97;;;;;;;;;;5028304;28;20472;-80
2021/12/05 18:00:12;;;;;;;31.13;19.23;;;;;;;;;;5029089;28;20485;-80
2021/12/05 18:02:45;;;;;;;32.83;19.73;;;;;;;;;;5026899;28;21137;-80
2021/12/05 18:05:12;;;;;;;31.33;18.60;;;;;;;;;;5028199;28;20455;-80
2021/12/05 18:07:39;;;;;;;32.23;20.13;;;;;;;;;;5026538;28;20524;-80
2021/12/05 18:10:05;;;;;;;37.87;19.90;;;;;;;;;;5030669;28;20445;-80